sensor_id;sensor_type;location;lat;lon;timestamp;temperature;humidity
56428;DHT22;42331;53.578;9.760;2022-08-03T06:05:42;20.80;99.90
56428;DHT22;42331;53.578;9.760;2022-08-03T06:08:12;20.80;99.90
56428;DHT22;42331;53.578;9.760;2022-08-03T06:10:43;20.90;99.90
56428;DHT22;42331;53.578;9.760;2022-08-03T06:13:14;20.90;99.90
56428;DHT22;42331;53.578;9.760;2022-08-03T06:15:45;21.00;99.90
56428;DHT22;42331;53.578;9.760;2022-08-03T06:18:15;21.10;99.90
56428;DHT22;42331;53.578;9.760;2022-08-03T06:20:46;21.20;99.90
56428;DHT22;42331;53.578;9.760;2022-08-03T06:23:17;21.20;99.90
56428;DHT22;42331;53.578;9.760;2022-08-03T06:25:48;21.20;99.90
56428;DHT22;42331;53.578;9.760;2022-08-03T06:28:19;21.40;99.90
56428;DHT22;42331;53.578;9.760;2022-08-03T06:30:50;21.50;99.90
56428;DHT22;42331;53.578;9.760;2022-08-03T06:33:20;21.50;99.90
56428;DHT22;42331;53.578;9.760;2022-08-03T06:35:51;21.60;99.90
56428;DHT22;42331;53.578;9.760;2022-08-03T06:38:22;21.70;99.90
56428;DHT22;42331;53.578;9.760;2022-08-03T06:40:52;21.80;99.90
56428;DHT22;42331;53.578;9.760;2022-08-03T06:43:23;21.90;99.90
56428;DHT22;42331;53.578;9.760;2022-08-03T06:45:54;22.10;99.90
56428;DHT22;42331;53.578;9.760;2022-08-03T06:48:25;22.10;99.90
56428;DHT22;42331;53.578;9.760;2022-08-03T06:50:55;22.20;99.90
56428;DHT22;42331;53.578;9.760;2022-08-03T06:53:26;22.30;99.90
56428;DHT22;42331;53.578;9.760;2022-08-03T06:55:57;22.40;99.90
56428;DHT22;42331;53.578;9.760;2022-08-03T06:58:28;22.50;99.90
56428;DHT22;42331;53.578;9.760;2022-08-03T07:00:59;22.60;99.90
56428;DHT22;42331;53.578;9.760;2022-08-03T07:03:29;22.70;99.90
56428;DHT22;42331;53.578;9.760;2022-08-03T07:06:00;22.80;99.90
56428;DHT22;42331;53.578;9.760;2022-08-03T07:08:31;22.90;99.90
56428;DHT22;42331;53.578;9.760;2022-08-03T07:11:02;22.90;99.90
56428;DHT22;42331;53.578;9.760;2022-08-03T07:13:32;23.00;99.90
56428;DHT22;42331;53.578;9.760;2022-08-03T07:16:03;23.20;99.90
56428;DHT22;42331;53.578;9.760;2022-08-03T07:18:37;23.30;99.90
56428;DHT22;42331;53.578;9.760;2022-08-03T07:21:08;23.50;99.90
56428;DHT22;42331;53.578;9.760;2022-08-03T07:23:40;23.50;99.90
56428;DHT22;42331;53.578;9.760;2022-08-03T07:26:11;23.50;99.90
56428;DHT22;42331;53.578;9.760;2022-08-03T07:28:42;23.60;99.90
56428;DHT22;42331;53.578;9.760;2022-08-03T07:31:13;23.70;99.90
56428;DHT22;42331;53.578;9.760;2022-08-03T07:33:43;23.80;99.90
56428;DHT22;42331;53.578;9.760;2022-08-03T07:36:14;24.00;99.90
56428;DHT22;42331;53.578;9.760;2022-08-03T07:38:45;24.10;99.90
56428;DHT22;42331;53.578;9.760;2022-08-03T07:41:16;24.20;99.90
56428;DHT22;42331;53.578;9.760;2022-08-03T07:43:46;24.40;99.90
56428;DHT22;42331;53.578;9.760;2022-08-03T07:46:17;24.50;99.90
56428;DHT22;42331;53.578;9.760;2022-08-03T07:48:48;24.30;99.90
56428;DHT22;42331;53.578;9.760;2022-08-03T07:51:19;24.40;99.90
56428;DHT22;42331;53.578;9.760;2022-08-03T07:53:52;24.60;99.90
56428;DHT22;42331;53.578;9.760;2022-08-03T07:56:24;24.80;99.90
56428;DHT22;42331;53.578;9.760;2022-08-03T07:58:55;24.80;99.90
56428;DHT22;42331;53.578;9.760;2022-08-03T08:01:27;24.90;99.90
56428;DHT22;42331;53.578;9.760;2022-08-03T08:03:57;25.00;99.90
56428;DHT22;42331;53.578;9.760;2022-08-03T08:06:28;25.00;99.90
56428;DHT22;42331;53.578;9.760;2022-08-03T08:09:01;25.00;99.90
56428;DHT22;42331;53.578;9.760;2022-08-03T08:11:31;25.10;99.90
56428;DHT22;42331;53.578;9.760;2022-08-03T08:14:02;25.10;99.90
56428;DHT22;42331;53.578;9.760;2022-08-03T08:16:34;25.10;99.90
56428;DHT22;42331;53.578;9.760;2022-08-03T08:19:05;25.20;99.90
56428;DHT22;42331;53.578;9.760;2022-08-03T08:21:36;25.30;99.90
56428;DHT22;42331;53.578;9.760;2022-08-03T08:24:07;25.50;99.90
56428;DHT22;42331;53.578;9.760;2022-08-03T08:26:38;25.60;99.90
56428;DHT22;42331;53.578;9.760;2022-08-03T08:29:08;25.80;99.90
56428;DHT22;42331;53.578;9.760;2022-08-03T08:31:39;25.90;99.90
56428;DHT22;42331;53.578;9.760;2022-08-03T08:34:10;25.90;99.90
56428;DHT22;42331;53.578;9.760;2022-08-03T08:36:41;26.00;99.90
56428;DHT22;42331;53.578;9.760;2022-08-03T08:39:11;25.90;99.90
56428;DHT22;42331;53.578;9.760;2022-08-03T08:41:42;26.00;99.90
56428;DHT22;42331;53.578;9.760;2022-08-03T08:44:13;26.00;99.90
56428;DHT22;42331;53.578;9.760;2022-08-03T08:46:44;26.10;99.90
56428;DHT22;42331;53.578;9.760;2022-08-03T08:49:15;26.20;99.90
56428;DHT22;42331;53.578;9.760;2022-08-03T08:51:50;26.30;99.90
56428;DHT22;42331;53.578;9.760;2022-08-03T08:54:22;26.30;99.90
56428;DHT22;42331;53.578;9.760;2022-08-03T08:56:56;26.30;99.90
56428;DHT22;42331;53.578;9.760;2022-08-03T08:59:33;26.30;99.90
56428;DHT22;42331;53.578;9.760;2022-08-03T09:02:04;26.30;99.90
56428;DHT22;42331;53.578;9.760;2022-08-03T09:04:37;26.40;99.90
56428;DHT22;42331;53.578;9.760;2022-08-03T09:07:08;26.60;99.90
56428;DHT22;42331;53.578;9.760;2022-08-03T09:09:39;26.70;99.90
56428;DHT22;42331;53.578;9.760;2022-08-03T09:12:11;26.40;99.90
56428;DHT22;42331;53.578;9.760;2022-08-03T09:14:42;26.50;99.90
56428;DHT22;42331;53.578;9.760;2022-08-03T09:17:13;26.60;99.90
56428;DHT22;42331;53.578;9.760;2022-08-03T09:20:04;26.60;99.90
56428;DHT22;42331;53.578;9.760;2022-08-03T09:22:57;26.80;99.90
56428;DHT22;42331;53.578;9.760;2022-08-03T09:25:33;27.00;99.90
56428;DHT22;42331;53.578;9.760;2022-08-03T09:28:12;27.00;99.90
56428;DHT22;42331;53.578;9.760;2022-08-03T09:30:45;27.10;99.90
56428;DHT22;42331;53.578;9.760;2022-08-03T09:33:27;27.20;99.90
56428;DHT22;42331;53.578;9.760;2022-08-03T09:35:58;27.20;99.90
56428;DHT22;42331;53.578;9.760;2022-08-03T09:38:29;27.10;99.90
56428;DHT22;42331;53.578;9.760;2022-08-03T09:41:00;27.00;99.90
56428;DHT22;42331;53.578;9.760;2022-08-03T09:43:44;27.00;99.90
56428;DHT22;42331;53.578;9.760;2022-08-03T09:46:16;27.20;99.90
56428;DHT22;42331;53.578;9.760;2022-08-03T09:48:47;27.40;99.90
56428;DHT22;42331;53.578;9.760;2022-08-03T09:51:23;27.70;99.90
56428;DHT22;42331;53.578;9.760;2022-08-03T09:53:54;27.70;99.90
56428;DHT22;42331;53.578;9.760;2022-08-03T09:56:42;27.80;99.90
56428;DHT22;42331;53.578;9.760;2022-08-03T09:59:29;28.00;99.90
56428;DHT22;42331;53.578;9.760;2022-08-03T10:01:59;27.90;99.90
56428;DHT22;42331;53.578;9.760;2022-08-03T10:04:31;27.90;99.90
56428;DHT22;42331;53.578;9.760;2022-08-03T10:07:04;27.90;99.90
56428;DHT22;42331;53.578;9.760;2022-08-03T10:09:36;27.80;99.90
56428;DHT22;42331;53.578;9.760;2022-08-03T10:12:11;28.00;99.90
56428;DHT22;42331;53.578;9.760;2022-08-03T10:14:42;28.20;99.90
56428;DHT22;42331;53.578;9.760;2022-08-03T10:17:15;28.50;99.90
56428;DHT22;42331;53.578;9.760;2022-08-03T10:19:46;28.80;99.90
56428;DHT22;42331;53.578;9.760;2022-08-03T10:22:26;28.80;99.90
56428;DHT22;42331;53.578;9.760;2022-08-03T10:25:07;29.00;99.90
56428;DHT22;42331;53.578;9.760;2022-08-03T10:27:42;29.00;99.90
56428;DHT22;42331;53.578;9.760;2022-08-03T10:30:16;29.10;99.90
56428;DHT22;42331;53.578;9.760;2022-08-03T10:32:54;29.60;99.90
56428;DHT22;42331;53.578;9.760;2022-08-03T10:35:28;30.00;99.90
56428;DHT22;42331;53.578;9.760;2022-08-03T10:38:07;30.30;99.90
56428;DHT22;42331;53.578;9.760;2022-08-03T10:40:39;30.50;99.90
56428;DHT22;42331;53.578;9.760;2022-08-03T10:43:19;30.70;99.90
56428;DHT22;42331;53.578;9.760;2022-08-03T10:45:50;31.00;99.90
56428;DHT22;42331;53.578;9.760;2022-08-03T10:48:22;30.90;99.90
56428;DHT22;42331;53.578;9.760;2022-08-03T10:50:53;31.20;99.90
56428;DHT22;42331;53.578;9.760;2022-08-03T10:53:36;31.10;99.90
56428;DHT22;42331;53.578;9.760;2022-08-03T11:02:14;32.50;99.90
56428;DHT22;42331;53.578;9.760;2022-08-03T11:04:45;32.60;99.90
56428;DHT22;42331;53.578;9.760;2022-08-03T11:07:17;32.80;99.90
56428;DHT22;42331;53.578;9.760;2022-08-03T11:09:53;32.80;99.90
56428;DHT22;42331;53.578;9.760;2022-08-03T11:14:56;33.60;99.90
56428;DHT22;42331;53.578;9.760;2022-08-03T11:17:27;33.20;99.90
56428;DHT22;42331;53.578;9.760;2022-08-03T11:19:58;32.70;99.90
56428;DHT22;42331;53.578;9.760;2022-08-03T11:22:47;32.70;99.90
56428;DHT22;42331;53.578;9.760;2022-08-03T11:25:20;32.90;99.90
56428;DHT22;42331;53.578;9.760;2022-08-03T11:28:26;32.30;99.90
56428;DHT22;42331;53.578;9.760;2022-08-03T11:34:06;30.90;99.90
56428;DHT22;42331;53.578;9.760;2022-08-03T11:39:48;30.20;99.90
56428;DHT22;42331;53.578;9.760;2022-08-03T11:44:58;29.70;99.90
56428;DHT22;42331;53.578;9.760;2022-08-03T11:47:29;29.40;99.90
56428;DHT22;42331;53.578;9.760;2022-08-03T11:50:00;29.50;99.90
56428;DHT22;42331;53.578;9.760;2022-08-03T11:52:37;29.70;99.90
56428;DHT22;42331;53.578;9.760;2022-08-03T11:55:09;29.70;99.90
56428;DHT22;42331;53.578;9.760;2022-08-03T11:57:41;29.40;99.90
56428;DHT22;42331;53.578;9.760;2022-08-03T12:00:25;29.40;99.90
56428;DHT22;42331;53.578;9.760;2022-08-03T12:03:02;29.20;99.90
56428;DHT22;42331;53.578;9.760;2022-08-03T12:08:14;29.30;99.90
56428;DHT22;42331;53.578;9.760;2022-08-03T12:10:48;29.30;99.90
56428;DHT22;42331;53.578;9.760;2022-08-03T12:13:20;29.30;99.90
56428;DHT22;42331;53.578;9.760;2022-08-03T12:15:56;29.40;99.90
56428;DHT22;42331;53.578;9.760;2022-08-03T12:18:28;29.40;99.90
56428;DHT22;42331;53.578;9.760;2022-08-03T12:21:07;29.40;99.90
56428;DHT22;42331;53.578;9.760;2022-08-03T12:23:38;29.30;99.90
56428;DHT22;42331;53.578;9.760;2022-08-03T12:26:09;29.20;99.90
56428;DHT22;42331;53.578;9.760;2022-08-03T12:28:46;29.20;99.90
56428;DHT22;42331;53.578;9.760;2022-08-03T12:31:17;29.10;99.90
56428;DHT22;42331;53.578;9.760;2022-08-03T12:36:31;29.20;99.90
56428;DHT22;42331;53.578;9.760;2022-08-03T12:41:37;29.30;99.90
56428;DHT22;42331;53.578;9.760;2022-08-03T12:44:08;29.40;99.90
56428;DHT22;42331;53.578;9.760;2022-08-03T12:46:40;29.30;99.90
56428;DHT22;42331;53.578;9.760;2022-08-03T12:49:13;29.20;99.90
56428;DHT22;42331;53.578;9.760;2022-08-03T12:54:25;29.30;99.90
56428;DHT22;42331;53.578;9.760;2022-08-03T12:57:04;29.40;99.90
56428;DHT22;42331;53.578;9.760;2022-08-03T12:59:37;29.50;99.90
56428;DHT22;42331;53.578;9.760;2022-08-03T13:02:25;29.50;99.90
56428;DHT22;42331;53.578;9.760;2022-08-03T13:04:56;29.20;99.90
56428;DHT22;42331;53.578;9.760;2022-08-03T13:07:27;29.10;99.90
56428;DHT22;42331;53.578;9.760;2022-08-03T13:09:58;29.00;99.90
56428;DHT22;42331;53.578;9.760;2022-08-03T13:12:28;29.10;99.90
56428;DHT22;42331;53.578;9.760;2022-08-03T13:15:00;29.20;99.90
56428;DHT22;42331;53.578;9.760;2022-08-03T13:17:30;29.50;99.90
56428;DHT22;42331;53.578;9.760;2022-08-03T13:20:01;29.70;99.90
56428;DHT22;42331;53.578;9.760;2022-08-03T13:22:32;29.80;99.90
56428;DHT22;42331;53.578;9.760;2022-08-03T13:25:04;29.90;99.90
56428;DHT22;42331;53.578;9.760;2022-08-03T13:27:35;29.70;99.90
56428;DHT22;42331;53.578;9.760;2022-08-03T13:30:07;29.40;99.90
56428;DHT22;42331;53.578;9.760;2022-08-03T13:32:39;29.20;99.90
56428;DHT22;42331;53.578;9.760;2022-08-03T13:35:10;29.10;99.90
56428;DHT22;42331;53.578;9.760;2022-08-03T13:37:40;29.00;99.90
56428;DHT22;42331;53.578;9.760;2022-08-03T13:40:11;29.30;99.90
56428;DHT22;42331;53.578;9.760;2022-08-03T13:42:42;29.30;99.90
56428;DHT22;42331;53.578;9.760;2022-08-03T13:45:13;29.10;99.90
56428;DHT22;42331;53.578;9.760;2022-08-03T13:47:43;29.50;99.90
56428;DHT22;42331;53.578;9.760;2022-08-03T13:50:14;29.70;99.90
56428;DHT22;42331;53.578;9.760;2022-08-03T13:52:45;29.50;99.90
56428;DHT22;42331;53.578;9.760;2022-08-03T13:55:16;29.30;99.90
56428;DHT22;42331;53.578;9.760;2022-08-03T13:57:47;29.30;99.90
56428;DHT22;42331;53.578;9.760;2022-08-03T14:00:18;29.50;99.90
56428;DHT22;42331;53.578;9.760;2022-08-03T14:02:53;29.60;99.90
56428;DHT22;42331;53.578;9.760;2022-08-03T14:05:24;29.60;99.90
56428;DHT22;42331;53.578;9.760;2022-08-03T14:07:55;29.40;99.90
56428;DHT22;42331;53.578;9.760;2022-08-03T14:10:25;29.40;99.90
56428;DHT22;42331;53.578;9.760;2022-08-03T14:12:56;29.70;99.90
56428;DHT22;42331;53.578;9.760;2022-08-03T14:15:29;29.60;99.90
56428;DHT22;42331;53.578;9.760;2022-08-03T14:18:00;29.50;99.90
56428;DHT22;42331;53.578;9.760;2022-08-03T14:20:31;29.40;99.90
56428;DHT22;42331;53.578;9.760;2022-08-03T14:23:02;29.50;99.90
56428;DHT22;42331;53.578;9.760;2022-08-03T14:25:33;29.40;99.90
56428;DHT22;42331;53.578;9.760;2022-08-03T14:28:03;29.30;99.90
56428;DHT22;42331;53.578;9.760;2022-08-03T14:30:34;29.10;99.90
56428;DHT22;42331;53.578;9.760;2022-08-03T14:33:05;29.10;99.90
56428;DHT22;42331;53.578;9.760;2022-08-03T14:35:36;29.10;99.90
56428;DHT22;42331;53.578;9.760;2022-08-03T14:38:06;29.10;99.90
56428;DHT22;42331;53.578;9.760;2022-08-03T14:40:37;29.00;99.90
56428;DHT22;42331;53.578;9.760;2022-08-03T14:43:08;29.00;99.90
56428;DHT22;42331;53.578;9.760;2022-08-03T14:45:39;29.10;99.90
56428;DHT22;42331;53.578;9.760;2022-08-03T14:48:10;29.00;99.90
56428;DHT22;42331;53.578;9.760;2022-08-03T14:50:42;29.00;99.90
56428;DHT22;42331;53.578;9.760;2022-08-03T14:53:13;29.20;99.90
56428;DHT22;42331;53.578;9.760;2022-08-03T14:55:44;29.40;99.90
56428;DHT22;42331;53.578;9.760;2022-08-03T14:58:18;29.60;99.90
56428;DHT22;42331;53.578;9.760;2022-08-03T15:00:52;29.60;99.90
56428;DHT22;42331;53.578;9.760;2022-08-03T15:03:24;29.60;99.90
56428;DHT22;42331;53.578;9.760;2022-08-03T15:05:55;29.60;99.90
56428;DHT22;42331;53.578;9.760;2022-08-03T15:08:26;29.60;99.90
56428;DHT22;42331;53.578;9.760;2022-08-03T15:10:57;29.40;99.90
56428;DHT22;42331;53.578;9.760;2022-08-03T15:13:27;29.40;99.90
56428;DHT22;42331;53.578;9.760;2022-08-03T15:15:58;29.30;99.90
56428;DHT22;42331;53.578;9.760;2022-08-03T15:18:29;29.10;99.90
56428;DHT22;42331;53.578;9.760;2022-08-03T15:21:00;29.00;99.90
56428;DHT22;42331;53.578;9.760;2022-08-03T15:23:31;29.10;99.90
56428;DHT22;42331;53.578;9.760;2022-08-03T15:26:02;29.20;99.90
56428;DHT22;42331;53.578;9.760;2022-08-03T15:28:33;29.20;99.90
56428;DHT22;42331;53.578;9.760;2022-08-03T15:31:04;29.20;99.90
56428;DHT22;42331;53.578;9.760;2022-08-03T15:33:36;29.10;99.90
56428;DHT22;42331;53.578;9.760;2022-08-03T15:36:06;28.90;99.90
56428;DHT22;42331;53.578;9.760;2022-08-03T15:38:37;28.90;99.90
56428;DHT22;42331;53.578;9.760;2022-08-03T15:41:08;28.90;99.90
56428;DHT22;42331;53.578;9.760;2022-08-03T15:43:39;28.90;99.90
56428;DHT22;42331;53.578;9.760;2022-08-03T15:46:10;28.90;99.90
56428;DHT22;42331;53.578;9.760;2022-08-03T15:48:40;29.00;99.90
56428;DHT22;42331;53.578;9.760;2022-08-03T15:51:11;29.10;99.90
56428;DHT22;42331;53.578;9.760;2022-08-03T15:53:42;29.10;99.90
56428;DHT22;42331;53.578;9.760;2022-08-03T15:56:13;29.10;99.90
56428;DHT22;42331;53.578;9.760;2022-08-03T15:58:44;29.10;99.90
56428;DHT22;42331;53.578;9.760;2022-08-03T16:01:14;29.10;99.90
56428;DHT22;42331;53.578;9.760;2022-08-03T16:03:45;29.00;99.90
56428;DHT22;42331;53.578;9.760;2022-08-03T16:06:16;28.90;99.90
56428;DHT22;42331;53.578;9.760;2022-08-03T16:08:47;28.90;99.90
56428;DHT22;42331;53.578;9.760;2022-08-03T16:11:18;28.80;99.90
56428;DHT22;42331;53.578;9.760;2022-08-03T16:13:49;28.70;99.90
56428;DHT22;42331;53.578;9.760;2022-08-03T16:16:20;28.60;99.90
56428;DHT22;42331;53.578;9.760;2022-08-03T16:18:50;28.60;99.90
56428;DHT22;42331;53.578;9.760;2022-08-03T16:21:21;28.60;99.90
56428;DHT22;42331;53.578;9.760;2022-08-03T16:23:52;28.60;99.90
56428;DHT22;42331;53.578;9.760;2022-08-03T16:26:23;28.50;99.90
56428;DHT22;42331;53.578;9.760;2022-08-03T16:28:53;28.50;99.90
56428;DHT22;42331;53.578;9.760;2022-08-03T16:31:24;28.50;99.90
56428;DHT22;42331;53.578;9.760;2022-08-03T16:33:56;28.40;99.90
56428;DHT22;42331;53.578;9.760;2022-08-03T16:36:28;28.40;99.90
56428;DHT22;42331;53.578;9.760;2022-08-03T16:38:58;28.50;99.90
56428;DHT22;42331;53.578;9.760;2022-08-03T16:41:29;28.50;99.90
56428;DHT22;42331;53.578;9.760;2022-08-03T16:44:00;28.40;99.90
56428;DHT22;42331;53.578;9.760;2022-08-03T16:46:31;28.50;99.90
56428;DHT22;42331;53.578;9.760;2022-08-03T16:49:01;28.40;99.90
56428;DHT22;42331;53.578;9.760;2022-08-03T16:51:32;28.40;99.90
56428;DHT22;42331;53.578;9.760;2022-08-03T16:56:36;28.30;99.90
56428;DHT22;42331;53.578;9.760;2022-08-03T16:59:07;28.40;99.90
56428;DHT22;42331;53.578;9.760;2022-08-03T17:01:39;28.40;99.90
56428;DHT22;42331;53.578;9.760;2022-08-03T17:04:10;28.30;99.90
56428;DHT22;42331;53.578;9.760;2022-08-03T17:06:42;28.30;99.90
56428;DHT22;42331;53.578;9.760;2022-08-03T17:09:16;28.30;99.90
56428;DHT22;42331;53.578;9.760;2022-08-03T17:11:50;28.30;99.90
56428;DHT22;42331;53.578;9.760;2022-08-03T17:14:21;28.30;99.90
56428;DHT22;42331;53.578;9.760;2022-08-03T17:16:53;28.20;99.90
56428;DHT22;42331;53.578;9.760;2022-08-03T17:19:28;28.20;99.90
56428;DHT22;42331;53.578;9.760;2022-08-03T17:22:04;28.10;99.90
56428;DHT22;42331;53.578;9.760;2022-08-03T17:24:39;28.00;99.90
56428;DHT22;42331;53.578;9.760;2022-08-03T17:27:15;28.00;99.90
56428;DHT22;42331;53.578;9.760;2022-08-03T17:29:47;27.90;99.90
56428;DHT22;42331;53.578;9.760;2022-08-03T17:32:18;27.90;99.90
56428;DHT22;42331;53.578;9.760;2022-08-03T17:34:49;27.50;99.90
56428;DHT22;42331;53.578;9.760;2022-08-03T17:37:20;26.90;99.90
56428;DHT22;42331;53.578;9.760;2022-08-03T17:39:52;26.60;99.90
56428;DHT22;42331;53.578;9.760;2022-08-03T17:42:24;26.30;99.90
56428;DHT22;42331;53.578;9.760;2022-08-03T17:44:55;26.10;99.90
56428;DHT22;42331;53.578;9.760;2022-08-03T17:47:26;26.00;99.90
56428;DHT22;42331;53.578;9.760;2022-08-03T17:49:57;26.00;99.90
56428;DHT22;42331;53.578;9.760;2022-08-03T17:52:34;26.00;99.90
56428;DHT22;42331;53.578;9.760;2022-08-03T17:55:13;25.90;99.90
56428;DHT22;42331;53.578;9.760;2022-08-03T17:57:52;25.90;99.90
56428;DHT22;42331;53.578;9.760;2022-08-03T18:00:24;25.80;99.90
56428;DHT22;42331;53.578;9.760;2022-08-03T18:03:35;25.70;99.90
56428;DHT22;42331;53.578;9.760;2022-08-03T18:06:07;25.70;99.90
56428;DHT22;42331;53.578;9.760;2022-08-03T18:08:52;25.80;99.90
56428;DHT22;42331;53.578;9.760;2022-08-03T18:11:28;25.70;99.90
56428;DHT22;42331;53.578;9.760;2022-08-03T18:16:44;25.60;99.90
56428;DHT22;42331;53.578;9.760;2022-08-03T18:19:17;25.60;99.90
56428;DHT22;42331;53.578;9.760;2022-08-03T18:21:48;25.50;99.90
56428;DHT22;42331;53.578;9.760;2022-08-03T18:24:19;25.50;99.90
56428;DHT22;42331;53.578;9.760;2022-08-03T18:26:53;25.50;99.90
56428;DHT22;42331;53.578;9.760;2022-08-03T18:29:25;25.50;99.90
56428;DHT22;42331;53.578;9.760;2022-08-03T18:31:59;25.50;99.90
56428;DHT22;42331;53.578;9.760;2022-08-03T18:34:31;25.40;99.90
56428;DHT22;42331;53.578;9.760;2022-08-03T18:37:04;25.40;99.90
56428;DHT22;42331;53.578;9.760;2022-08-03T18:39:36;25.50;99.90
56428;DHT22;42331;53.578;9.760;2022-08-03T18:42:07;25.50;99.90
56428;DHT22;42331;53.578;9.760;2022-08-03T18:44:38;25.50;99.90
56428;DHT22;42331;53.578;9.760;2022-08-03T18:50:06;25.50;99.90
56428;DHT22;42331;53.578;9.760;2022-08-03T18:55:24;25.40;99.90
56428;DHT22;42331;53.578;9.760;2022-08-03T19:03:35;25.10;99.90
56428;DHT22;42331;53.578;9.760;2022-08-03T19:06:08;25.00;99.90
56428;DHT22;42331;53.578;9.760;2022-08-03T19:08:48;24.90;99.90
56428;DHT22;42331;53.578;9.760;2022-08-03T19:11:24;24.90;99.90
56428;DHT22;42331;53.578;9.760;2022-08-03T19:14:16;24.80;99.90
56428;DHT22;42331;53.578;9.760;2022-08-03T19:16:55;24.80;99.90
56428;DHT22;42331;53.578;9.760;2022-08-03T19:19:33;24.70;99.90
56428;DHT22;42331;53.578;9.760;2022-08-03T19:22:04;24.60;99.90
56428;DHT22;42331;53.578;9.760;2022-08-03T19:24:37;24.50;99.90
56428;DHT22;42331;53.578;9.760;2022-08-03T19:27:09;24.40;99.90
56428;DHT22;42331;53.578;9.760;2022-08-03T19:29:44;24.40;99.90
56428;DHT22;42331;53.578;9.760;2022-08-03T19:32:16;24.20;99.90
56428;DHT22;42331;53.578;9.760;2022-08-03T19:34:50;24.10;99.90
56428;DHT22;42331;53.578;9.760;2022-08-03T19:37:22;24.00;99.90
56428;DHT22;42331;53.578;9.760;2022-08-03T19:39:53;23.90;99.90
56428;DHT22;42331;53.578;9.760;2022-08-03T19:42:30;23.60;99.90
56428;DHT22;42331;53.578;9.760;2022-08-03T19:45:05;23.30;99.90
56428;DHT22;42331;53.578;9.760;2022-08-03T19:47:44;23.00;99.90
56428;DHT22;42331;53.578;9.760;2022-08-03T19:50:18;22.90;99.90
56428;DHT22;42331;53.578;9.760;2022-08-03T19:52:50;22.90;99.90
56428;DHT22;42331;53.578;9.760;2022-08-03T19:55:22;22.60;99.90
56428;DHT22;42331;53.578;9.760;2022-08-03T19:57:55;22.40;99.90
56428;DHT22;42331;53.578;9.760;2022-08-03T20:00:26;22.30;99.90
56428;DHT22;42331;53.578;9.760;2022-08-03T20:02:59;22.20;99.90
56428;DHT22;42331;53.578;9.760;2022-08-03T20:05:30;22.10;99.90
56428;DHT22;42331;53.578;9.760;2022-08-03T20:08:04;22.10;99.90
56428;DHT22;42331;53.578;9.760;2022-08-03T20:10:35;22.10;99.90
56428;DHT22;42331;53.578;9.760;2022-08-03T20:13:05;22.10;99.90
56428;DHT22;42331;53.578;9.760;2022-08-03T20:15:36;22.10;99.90
56428;DHT22;42331;53.578;9.760;2022-08-03T20:18:07;22.00;99.90
56428;DHT22;42331;53.578;9.760;2022-08-03T20:20:38;22.00;99.90
56428;DHT22;42331;53.578;9.760;2022-08-03T20:23:12;22.00;99.90
56428;DHT22;42331;53.578;9.760;2022-08-03T20:25:49;22.00;99.90
56428;DHT22;42331;53.578;9.760;2022-08-03T20:28:31;22.00;99.90
56428;DHT22;42331;53.578;9.760;2022-08-03T20:31:04;22.10;99.90
56428;DHT22;42331;53.578;9.760;2022-08-03T20:33:35;22.00;99.90
56428;DHT22;42331;53.578;9.760;2022-08-03T20:36:06;22.00;99.90
56428;DHT22;42331;53.578;9.760;2022-08-03T20:38:37;22.00;99.90
56428;DHT22;42331;53.578;9.760;2022-08-03T20:41:07;22.00;99.90
56428;DHT22;42331;53.578;9.760;2022-08-03T20:43:39;22.00;99.90
56428;DHT22;42331;53.578;9.760;2022-08-03T20:46:13;22.10;99.90
56428;DHT22;42331;53.578;9.760;2022-08-03T20:48:44;21.90;99.90
56428;DHT22;42331;53.578;9.760;2022-08-03T20:51:16;21.80;99.90
56428;DHT22;42331;53.578;9.760;2022-08-03T20:53:47;21.80;99.90
56428;DHT22;42331;53.578;9.760;2022-08-03T20:56:18;21.80;99.90
56428;DHT22;42331;53.578;9.760;2022-08-03T20:58:53;21.70;99.90
56428;DHT22;42331;53.578;9.760;2022-08-03T21:01:24;21.70;99.90
56428;DHT22;42331;53.578;9.760;2022-08-03T21:03:56;21.70;99.90
56428;DHT22;42331;53.578;9.760;2022-08-03T21:06:30;21.60;99.90
56428;DHT22;42331;53.578;9.760;2022-08-03T21:09:04;21.70;99.90
56428;DHT22;42331;53.578;9.760;2022-08-03T21:11:39;21.70;99.90
56428;DHT22;42331;53.578;9.760;2022-08-03T21:15:04;21.70;99.90
56428;DHT22;42331;53.578;9.760;2022-08-03T21:17:30;21.70;99.90
56428;DHT22;42331;53.578;9.760;2022-08-03T21:20:06;21.70;99.90
56428;DHT22;42331;53.578;9.760;2022-08-03T21:22:39;21.60;99.90
56428;DHT22;42331;53.578;9.760;2022-08-03T21:25:14;21.60;99.90
56428;DHT22;42331;53.578;9.760;2022-08-03T21:27:46;21.60;99.90
56428;DHT22;42331;53.578;9.760;2022-08-03T21:30:19;21.50;99.90
56428;DHT22;42331;53.578;9.760;2022-08-03T21:32:53;21.50;99.90
56428;DHT22;42331;53.578;9.760;2022-08-03T21:35:24;21.40;99.90
56428;DHT22;42331;53.578;9.760;2022-08-03T21:37:55;21.40;99.90
56428;DHT22;42331;53.578;9.760;2022-08-03T21:40:48;21.40;99.90
56428;DHT22;42331;53.578;9.760;2022-08-03T21:43:21;21.40;99.90
56428;DHT22;42331;53.578;9.760;2022-08-03T21:45:57;21.40;99.90
56428;DHT22;42331;53.578;9.760;2022-08-03T21:48:35;21.40;99.90
56428;DHT22;42331;53.578;9.760;2022-08-03T21:51:08;21.30;99.90
56428;DHT22;42331;53.578;9.760;2022-08-03T21:53:42;21.20;99.90
56428;DHT22;42331;53.578;9.760;2022-08-03T21:56:16;21.20;99.90
56428;DHT22;42331;53.578;9.760;2022-08-03T21:58:52;21.20;99.90
56428;DHT22;42331;53.578;9.760;2022-08-03T22:01:24;21.10;99.90
56428;DHT22;42331;53.578;9.760;2022-08-03T22:03:55;21.10;99.90
56428;DHT22;42331;53.578;9.760;2022-08-03T22:06:26;21.10;99.90
56428;DHT22;42331;53.578;9.760;2022-08-03T22:08:57;21.10;99.90
56428;DHT22;42331;53.578;9.760;2022-08-03T22:11:28;21.10;99.90
56428;DHT22;42331;53.578;9.760;2022-08-03T22:14:00;21.00;99.90
56428;DHT22;42331;53.578;9.760;2022-08-03T22:16:31;21.00;99.90
56428;DHT22;42331;53.578;9.760;2022-08-03T22:19:02;20.90;99.90
56428;DHT22;42331;53.578;9.760;2022-08-03T22:21:34;20.90;99.90
56428;DHT22;42331;53.578;9.760;2022-08-03T22:24:05;20.90;99.90
56428;DHT22;42331;53.578;9.760;2022-08-03T22:26:38;20.90;99.90
56428;DHT22;42331;53.578;9.760;2022-08-03T22:29:10;20.90;99.90
56428;DHT22;42331;53.578;9.760;2022-08-03T22:31:41;20.80;99.90
56428;DHT22;42331;53.578;9.760;2022-08-03T22:34:12;20.90;99.90
56428;DHT22;42331;53.578;9.760;2022-08-03T22:36:43;20.90;99.90
56428;DHT22;42331;53.578;9.760;2022-08-03T22:39:14;20.80;99.90
56428;DHT22;42331;53.578;9.760;2022-08-03T22:41:45;20.80;99.90
56428;DHT22;42331;53.578;9.760;2022-08-03T22:44:16;20.80;99.90
56428;DHT22;42331;53.578;9.760;2022-08-03T22:46:47;20.80;99.90
56428;DHT22;42331;53.578;9.760;2022-08-03T22:49:18;20.80;99.90
56428;DHT22;42331;53.578;9.760;2022-08-03T22:51:53;20.80;99.90
56428;DHT22;42331;53.578;9.760;2022-08-03T22:54:25;20.80;99.90